Marathon, WI (54448)

4:02 PM CDT on September 04, 2015 (GMT -0500)
East Rib Mountain | | Change Station
CLOSE
Current Station
Personal Weather Station
Location: Wausau, WI
Elevation: 1211 ft
Nearby Weather Stations

Elev 1211 ft 44.93 °N, 89.66 °W | Updated 2 minutes ago

Clear
Clear
86.0 °F
Feels Like 88 °F
N
1.6
Wind Variable Wind from SE
Gusts 8.3 mph

Today
High -- | Low -- °F
--% Chance of Precip.
Yesterday
High -- | Low -- °F
Precip. -- in
6:24 AM 7:31 PM
Waning Gibbous, 56% visible
Pressure 30.02 in
Visibility 10.0 miles
Clouds Mostly Cloudy 3300 ft
Heat Index 88 °F
Dew Point 66 °F
Humidity 52%
Rainfall 0.00 in
Snow Depth Not available.
UV 2 out of 12
Pollen 9.80 out of 12
Air Quality Not available.
Flu Activity Not available.
METAR KAUW 042054Z AUTO 11006KT 10SM BKN033 28/19 A3002 RMK AO2 SLP164 T02780189 58008
Pressure 30.02 in
Visibility 10.0 miles
Clouds Mostly Cloudy 3300 ft
Heat Index 88 °F
Dew Point 66 °F
Humidity 52%
Rainfall 0.00 in
Snow Depth Not available.
UV 2 out of 12
Pollen 9.80 out of 12
Air Quality Not available.
Flu Activity Not available.
METAR KAUW 042054Z AUTO 11006KT 10SM BKN033 28/19 A3002 RMK AO2 SLP164 T02780189 58008

10-Day Weather Forecast

×

Almanac

Astronomy

Sep. 04, 2015 Rise Set
Actual Time
Civil Twilight
Nautical Twilight
Astronomical Twilight
Moon
Length of Visible Light
Length of Day
Tomorrow will be .
, % of the Moon is Illuminated

Today's Extremes

State Highs State Lows

Community

WunderPhotos

Upload Photos

1,852,290 photos uploaded!

WunderBlogs® & News

Nearby

Air Quality

  Air Quality AQ Index Pollutant
Not available.

Snow Depth

Station Depth Elevation

Earthquake Activity

City Distance Mag. Time & Date
Minimum magnitude displayed is 2.5.

Coastal Water Temperatures

Place Temperature

Stations

Nearby Weather Stations

Station Location Temp. Windchill Dew Point Humidity Wind Precip. Elev Updated Type